BLUO2: Blue River, Blue, OK

                                SHEF ID:       BLUO2     Blue River near Blue, OK
STATION TYPE:
Regulating: Stage = 21.00, Flow = 5001

PRECIP STAGE RIV-FLOW BAT-LOAD
in ft cfs volt
Ccp-Rev Ccp-Rev Ccp-Rev Ccp-Rev
(America/Chicago)
03/11 00:00 0.11 6.81 158 12.97
03/11 01:00 0.08 6.83 160 12.89
03/11 02:00 0.00 6.82 159 12.89
03/11 03:00 0.07 6.82 159 12.81
03/11 04:00 0.13 6.84 162 12.81
03/11 05:00 0.01 6.84 162 12.81
03/11 06:00 0.00 6.85 163 12.81
03/11 07:00 0.00 6.87 166 12.81
03/11 08:00 0.00 6.90 170 12.81
03/11 09:00 0.00 6.99 183 12.81
03/11 10:00 0.00 7.13 205 13.05
03/11 11:00 0.00 7.30 233 13.60
03/11 12:00 0.00 7.51 271 14.00
03/11 13:00 0.00 7.72 312 13.84
03/11 14:00 0.00 7.95 358 14.00
03/11 15:00 0.00 8.10 388 13.68
03/11 16:00 0.00 8.24 417 13.29
03/11 17:00 0.02 8.33 436 13.92
03/11 18:00 0.00 8.39 449 14.00
03/11 19:00 0.00 8.44 460 13.84
03/11 20:00 0.00 8.46 464 13.29
03/11 21:00 0.00 8.43 457 12.97
03/11 22:00 0.00 8.41 453 12.97
03/11 23:00 0.00 8.37 444 12.89
Data processed at Thu 12Mar2026 04:47 GMT

NOTICE: If you are parsing this page

Please convert to using our Data API. Starting early 2026 we will be migrating to: https://water.usace.army.mil with modern pages rendered in JavaScript. When this migration completes you will no longer be able to scrape this page! CWMSDataAPI (CDA)

Timeseries IDs (TSIDs)

TSIDs used from left to right in the data table
BLUE.Precip-Inc.Total.1Hour.1Hour.Ccp-Rev
BLUE.Stage.Inst.1Hour.0.Ccp-Rev
BLUE.Flow.Inst.1Hour.0.Ccp-Rev
BLUE.Volt-Battery Load.Inst.1Hour.0.Ccp-Rev

                            

All information presented herein is the property of the government of the United States of America and may be revised or deleted at any time without prior notice. Dissemination of this information without the expressed written consent of the Public Affairs Office, Tulsa District U.S. Army Corps of Engineers is strictly prohibited. These data are gathered electronically and, as presented, have NOT undergone any form of quality control. These data are NOT guaranteed to be valid or correct.